Terminal Aerodrome Forecast
Issued by NWS

Home | Current Version | Previous Version | Graphics & Text | Print | Product List | Glossary On
Versions: 1 2 3 4 5 6 7 8 9 10 11 12 13 14 15 16 17 18 19 20 21 22 23 24 25 26 27 28 29 30
000
FTUS43 KGRB 241400 AAA
TAFAUW
TAF AMD
KAUW 241401Z 2414/2512 22005KT 1/2SM FG OVC002
      TEMPO 2414/2416 1/4SM FG
     FM241600 20006KT 5SM BR BKN006
     FM241700 20007KT P6SM BKN250
     FM250000 21005KT 5SM BR BKN040
     FM250400 25006KT 5SM BR SCT006 SCT250=

USA.gov is the U.S. government's official web portal to all federal, state and local government web resources and services.